sensor_id;sensor_type;location;lat;lon;timestamp;temperature;humidity
44223;DHT22;29895;48.804;9.386;2022-09-09T07:22:39;18.40;99.90
44223;DHT22;29895;48.804;9.386;2022-09-09T07:25:05;18.50;99.90
44223;DHT22;29895;48.804;9.386;2022-09-09T07:27:31;18.60;99.90
44223;DHT22;29895;48.804;9.386;2022-09-09T07:29:56;18.80;99.90
44223;DHT22;29895;48.804;9.386;2022-09-09T07:32:22;19.10;99.90
44223;DHT22;29895;48.804;9.386;2022-09-09T07:34:48;19.40;99.90
44223;DHT22;29895;48.804;9.386;2022-09-09T07:37:16;19.60;99.90
44223;DHT22;29895;48.804;9.386;2022-09-09T07:39:42;19.70;99.90
44223;DHT22;29895;48.804;9.386;2022-09-09T07:42:09;19.80;99.90
44223;DHT22;29895;48.804;9.386;2022-09-09T07:44:36;19.90;99.90
44223;DHT22;29895;48.804;9.386;2022-09-09T07:47:03;19.90;99.90
44223;DHT22;29895;48.804;9.386;2022-09-09T07:49:28;20.00;99.90
44223;DHT22;29895;48.804;9.386;2022-09-09T07:51:55;20.20;99.90
44223;DHT22;29895;48.804;9.386;2022-09-09T07:54:21;20.30;99.90
44223;DHT22;29895;48.804;9.386;2022-09-09T07:56:48;20.20;99.90
44223;DHT22;29895;48.804;9.386;2022-09-09T07:59:15;20.20;99.90
44223;DHT22;29895;48.804;9.386;2022-09-09T08:01:43;20.30;99.90
44223;DHT22;29895;48.804;9.386;2022-09-09T08:04:10;20.60;99.90
44223;DHT22;29895;48.804;9.386;2022-09-09T08:06:42;20.80;99.90
44223;DHT22;29895;48.804;9.386;2022-09-09T08:09:09;21.00;99.90
44223;DHT22;29895;48.804;9.386;2022-09-09T08:11:35;21.00;99.90
44223;DHT22;29895;48.804;9.386;2022-09-09T08:14:01;21.00;99.90
44223;DHT22;29895;48.804;9.386;2022-09-09T08:16:29;21.30;99.90
44223;DHT22;29895;48.804;9.386;2022-09-09T08:18:55;21.70;99.90
44223;DHT22;29895;48.804;9.386;2022-09-09T08:21:22;22.00;99.90
44223;DHT22;29895;48.804;9.386;2022-09-09T08:23:49;22.30;99.90
44223;DHT22;29895;48.804;9.386;2022-09-09T08:26:18;22.50;99.90
44223;DHT22;29895;48.804;9.386;2022-09-09T08:28:52;22.60;99.90
44223;DHT22;29895;48.804;9.386;2022-09-09T08:33:45;22.10;99.90
44223;DHT22;29895;48.804;9.386;2022-09-09T08:36:12;21.90;99.90
44223;DHT22;29895;48.804;9.386;2022-09-09T08:38:38;21.80;99.90
44223;DHT22;29895;48.804;9.386;2022-09-09T08:41:07;22.00;99.90
44223;DHT22;29895;48.804;9.386;2022-09-09T08:43:37;22.00;99.90
44223;DHT22;29895;48.804;9.386;2022-09-09T08:46:13;22.20;99.90
44223;DHT22;29895;48.804;9.386;2022-09-09T08:51:21;22.50;99.90
44223;DHT22;29895;48.804;9.386;2022-09-09T08:53:49;22.80;99.90
44223;DHT22;29895;48.804;9.386;2022-09-09T08:56:21;23.10;99.90
44223;DHT22;29895;48.804;9.386;2022-09-09T08:58:51;23.20;99.90
44223;DHT22;29895;48.804;9.386;2022-09-09T09:11:51;24.60;99.90
44223;DHT22;29895;48.804;9.386;2022-09-09T09:14:20;24.60;99.90
44223;DHT22;29895;48.804;9.386;2022-09-09T09:16:58;24.90;99.90
44223;DHT22;29895;48.804;9.386;2022-09-09T09:19:26;25.10;99.90
44223;DHT22;29895;48.804;9.386;2022-09-09T09:21:58;25.10;99.70
44223;DHT22;29895;48.804;9.386;2022-09-09T09:24:27;24.80;99.90
44223;DHT22;29895;48.804;9.386;2022-09-09T09:26:58;24.50;99.90
44223;DHT22;29895;48.804;9.386;2022-09-09T09:29:25;24.40;99.90
44223;DHT22;29895;48.804;9.386;2022-09-09T09:31:58;24.40;99.90
44223;DHT22;29895;48.804;9.386;2022-09-09T09:34:24;24.70;99.90
44223;DHT22;29895;48.804;9.386;2022-09-09T09:36:56;24.90;99.20
44223;DHT22;29895;48.804;9.386;2022-09-09T09:39:24;24.90;99.20
44223;DHT22;29895;48.804;9.386;2022-09-09T09:41:52;25.50;98.50
44223;DHT22;29895;48.804;9.386;2022-09-09T09:44:31;25.70;98.30
44223;DHT22;29895;48.804;9.386;2022-09-09T09:47:07;25.50;98.50
44223;DHT22;29895;48.804;9.386;2022-09-09T09:49:33;25.00;98.50
44223;DHT22;29895;48.804;9.386;2022-09-09T09:52:03;24.30;99.90
44223;DHT22;29895;48.804;9.386;2022-09-09T09:54:30;22.70;99.90
44223;DHT22;29895;48.804;9.386;2022-09-09T09:57:14;21.20;99.90
44223;DHT22;29895;48.804;9.386;2022-09-09T09:59:40;20.40;99.90
44223;DHT22;29895;48.804;9.386;2022-09-09T10:02:31;20.30;99.90
44223;DHT22;29895;48.804;9.386;2022-09-09T10:05:03;20.30;99.90
44223;DHT22;29895;48.804;9.386;2022-09-09T10:07:28;20.40;99.90
44223;DHT22;29895;48.804;9.386;2022-09-09T10:09:55;20.80;99.90
44223;DHT22;29895;48.804;9.386;2022-09-09T10:12:37;21.20;99.90
44223;DHT22;29895;48.804;9.386;2022-09-09T10:29:13;22.20;99.90
44223;DHT22;29895;48.804;9.386;2022-09-09T10:31:51;22.30;99.90
44223;DHT22;29895;48.804;9.386;2022-09-09T10:34:36;22.30;99.90
44223;DHT22;29895;48.804;9.386;2022-09-09T10:37:21;22.30;99.90
44223;DHT22;29895;48.804;9.386;2022-09-09T10:39:50;22.50;99.90
44223;DHT22;29895;48.804;9.386;2022-09-09T10:42:20;22.70;99.90
44223;DHT22;29895;48.804;9.386;2022-09-09T10:52:32;22.90;99.90
44223;DHT22;29895;48.804;9.386;2022-09-09T10:55:13;23.00;99.90
44223;DHT22;29895;48.804;9.386;2022-09-09T10:57:43;23.20;99.90
44223;DHT22;29895;48.804;9.386;2022-09-09T11:00:15;23.30;99.90
44223;DHT22;29895;48.804;9.386;2022-09-09T11:02:42;23.50;99.90
44223;DHT22;29895;48.804;9.386;2022-09-09T11:05:21;23.50;99.90
44223;DHT22;29895;48.804;9.386;2022-09-09T11:07:52;23.50;99.90
44223;DHT22;29895;48.804;9.386;2022-09-09T11:13:15;23.10;99.90
44223;DHT22;29895;48.804;9.386;2022-09-09T11:15:44;23.20;99.90
44223;DHT22;29895;48.804;9.386;2022-09-09T11:18:13;23.40;99.90
44223;DHT22;29895;48.804;9.386;2022-09-09T11:20:42;23.50;99.90
44223;DHT22;29895;48.804;9.386;2022-09-09T11:23:15;23.70;99.90
44223;DHT22;29895;48.804;9.386;2022-09-09T11:25:45;23.90;99.90
44223;DHT22;29895;48.804;9.386;2022-09-09T11:38:32;23.90;99.60
44223;DHT22;29895;48.804;9.386;2022-09-09T11:41:07;23.70;99.80
44223;DHT22;29895;48.804;9.386;2022-09-09T11:43:44;23.60;99.90
44223;DHT22;29895;48.804;9.386;2022-09-09T11:46:11;23.30;99.90
44223;DHT22;29895;48.804;9.386;2022-09-09T11:48:39;22.70;98.90
44223;DHT22;29895;48.804;9.386;2022-09-09T11:51:10;21.90;99.10
44223;DHT22;29895;48.804;9.386;2022-09-09T11:56:26;20.90;99.90
44223;DHT22;29895;48.804;9.386;2022-09-09T11:59:00;19.80;99.90
44223;DHT22;29895;48.804;9.386;2022-09-09T12:01:35;18.90;99.90
44223;DHT22;29895;48.804;9.386;2022-09-09T12:07:30;17.80;99.90
44223;DHT22;29895;48.804;9.386;2022-09-09T12:09:44;17.90;99.90
44223;DHT22;29895;48.804;9.386;2022-09-09T12:19:42;19.10;99.90
44223;DHT22;29895;48.804;9.386;2022-09-09T12:24:58;19.30;99.90
44223;DHT22;29895;48.804;9.386;2022-09-09T12:27:27;19.70;99.90
44223;DHT22;29895;48.804;9.386;2022-09-09T12:30:03;20.00;99.90
44223;DHT22;29895;48.804;9.386;2022-09-09T12:32:28;20.20;99.90
44223;DHT22;29895;48.804;9.386;2022-09-09T12:37:34;20.40;99.90
44223;DHT22;29895;48.804;9.386;2022-09-09T12:40:03;20.20;99.90
44223;DHT22;29895;48.804;9.386;2022-09-09T12:42:30;20.30;99.90
44223;DHT22;29895;48.804;9.386;2022-09-09T12:44:58;20.50;99.90
44223;DHT22;29895;48.804;9.386;2022-09-09T12:47:25;20.60;99.90
44223;DHT22;29895;48.804;9.386;2022-09-09T12:49:53;20.60;99.90
44223;DHT22;29895;48.804;9.386;2022-09-09T12:52:24;20.70;99.90
44223;DHT22;29895;48.804;9.386;2022-09-09T12:54:51;21.00;99.90
44223;DHT22;29895;48.804;9.386;2022-09-09T12:57:19;21.30;99.90
44223;DHT22;29895;48.804;9.386;2022-09-09T12:59:45;21.50;99.90
44223;DHT22;29895;48.804;9.386;2022-09-09T13:02:32;21.70;99.90
44223;DHT22;29895;48.804;9.386;2022-09-09T13:05:05;21.80;99.90
44223;DHT22;29895;48.804;9.386;2022-09-09T13:07:31;21.60;99.90
44223;DHT22;29895;48.804;9.386;2022-09-09T13:09:56;21.50;99.90
44223;DHT22;29895;48.804;9.386;2022-09-09T13:12:22;21.40;99.90
44223;DHT22;29895;48.804;9.386;2022-09-09T13:14:48;21.50;99.90
44223;DHT22;29895;48.804;9.386;2022-09-09T13:17:20;21.80;99.90
44223;DHT22;29895;48.804;9.386;2022-09-09T13:19:46;22.00;99.90
44223;DHT22;29895;48.804;9.386;2022-09-09T13:22:34;22.30;99.90
44223;DHT22;29895;48.804;9.386;2022-09-09T13:25:03;22.50;99.90
44223;DHT22;29895;48.804;9.386;2022-09-09T13:27:34;22.70;99.90
44223;DHT22;29895;48.804;9.386;2022-09-09T13:30:00;22.50;99.90
44223;DHT22;29895;48.804;9.386;2022-09-09T13:32:26;22.30;99.90
44223;DHT22;29895;48.804;9.386;2022-09-09T13:37:30;22.10;99.90
44223;DHT22;29895;48.804;9.386;2022-09-09T13:39:58;22.20;99.90
44223;DHT22;29895;48.804;9.386;2022-09-09T13:42:25;22.30;99.50
44223;DHT22;29895;48.804;9.386;2022-09-09T13:44:51;22.40;99.90
44223;DHT22;29895;48.804;9.386;2022-09-09T13:47:18;22.40;99.20
44223;DHT22;29895;48.804;9.386;2022-09-09T13:49:45;22.50;98.90
44223;DHT22;29895;48.804;9.386;2022-09-09T13:52:17;22.70;98.80
44223;DHT22;29895;48.804;9.386;2022-09-09T13:54:50;23.00;99.00
44223;DHT22;29895;48.804;9.386;2022-09-09T13:59:45;23.40;98.60
44223;DHT22;29895;48.804;9.386;2022-09-09T14:02:11;23.70;98.00
44223;DHT22;29895;48.804;9.386;2022-09-09T14:04:37;23.90;97.60
44223;DHT22;29895;48.804;9.386;2022-09-09T14:07:03;23.90;97.80
44223;DHT22;29895;48.804;9.386;2022-09-09T14:09:28;23.80;97.60
44223;DHT22;29895;48.804;9.386;2022-09-09T14:11:54;23.80;98.10
44223;DHT22;29895;48.804;9.386;2022-09-09T14:14:22;23.70;97.50
44223;DHT22;29895;48.804;9.386;2022-09-09T14:16:48;23.70;97.80
44223;DHT22;29895;48.804;9.386;2022-09-09T14:19:13;23.70;97.50
44223;DHT22;29895;48.804;9.386;2022-09-09T14:21:39;23.70;96.70
44223;DHT22;29895;48.804;9.386;2022-09-09T14:24:05;23.50;97.00
44223;DHT22;29895;48.804;9.386;2022-09-09T14:26:34;23.40;97.30
44223;DHT22;29895;48.804;9.386;2022-09-09T14:28:59;23.30;97.60
44223;DHT22;29895;48.804;9.386;2022-09-09T14:31:26;23.20;97.30
44223;DHT22;29895;48.804;9.386;2022-09-09T14:33:52;23.10;97.70
44223;DHT22;29895;48.804;9.386;2022-09-09T14:36:19;23.10;97.70
44223;DHT22;29895;48.804;9.386;2022-09-09T14:38:45;23.10;97.70
44223;DHT22;29895;48.804;9.386;2022-09-09T14:41:15;23.10;97.60
44223;DHT22;29895;48.804;9.386;2022-09-09T14:43:45;23.10;97.30
44223;DHT22;29895;48.804;9.386;2022-09-09T14:46:16;23.20;96.70
44223;DHT22;29895;48.804;9.386;2022-09-09T14:48:42;23.30;96.40
44223;DHT22;29895;48.804;9.386;2022-09-09T14:51:10;23.40;96.40
44223;DHT22;29895;48.804;9.386;2022-09-09T14:53:36;23.30;96.40
44223;DHT22;29895;48.804;9.386;2022-09-09T14:59:05;23.20;96.00
44223;DHT22;29895;48.804;9.386;2022-09-09T15:01:31;23.10;96.20
44223;DHT22;29895;48.804;9.386;2022-09-09T15:03:58;23.10;95.90
44223;DHT22;29895;48.804;9.386;2022-09-09T15:06:24;23.00;95.70
44223;DHT22;29895;48.804;9.386;2022-09-09T15:08:51;23.00;96.20
44223;DHT22;29895;48.804;9.386;2022-09-09T15:11:17;23.00;96.50
44223;DHT22;29895;48.804;9.386;2022-09-09T15:13:44;22.90;96.20
44223;DHT22;29895;48.804;9.386;2022-09-09T15:16:11;22.80;96.00
44223;DHT22;29895;48.804;9.386;2022-09-09T15:18:37;22.80;95.80
44223;DHT22;29895;48.804;9.386;2022-09-09T15:21:11;22.90;96.10
44223;DHT22;29895;48.804;9.386;2022-09-09T15:23:37;23.00;95.70
44223;DHT22;29895;48.804;9.386;2022-09-09T15:26:04;22.90;95.90
44223;DHT22;29895;48.804;9.386;2022-09-09T15:28:31;22.80;95.90
44223;DHT22;29895;48.804;9.386;2022-09-09T15:30:57;22.70;96.00
44223;DHT22;29895;48.804;9.386;2022-09-09T15:33:25;22.60;95.90
44223;DHT22;29895;48.804;9.386;2022-09-09T15:35:50;22.40;96.30
44223;DHT22;29895;48.804;9.386;2022-09-09T15:38:17;22.40;96.40
44223;DHT22;29895;48.804;9.386;2022-09-09T15:40:44;22.40;96.40
44223;DHT22;29895;48.804;9.386;2022-09-09T15:43:12;22.30;96.00
44223;DHT22;29895;48.804;9.386;2022-09-09T15:45:38;22.30;96.50
44223;DHT22;29895;48.804;9.386;2022-09-09T15:48:03;22.20;96.70
44223;DHT22;29895;48.804;9.386;2022-09-09T15:50:29;22.10;96.90
44223;DHT22;29895;48.804;9.386;2022-09-09T15:52:58;22.10;96.70
44223;DHT22;29895;48.804;9.386;2022-09-09T15:55:24;22.10;96.60
44223;DHT22;29895;48.804;9.386;2022-09-09T15:57:50;22.00;96.70
44223;DHT22;29895;48.804;9.386;2022-09-09T16:00:18;21.90;96.80
44223;DHT22;29895;48.804;9.386;2022-09-09T16:02:45;21.90;96.80
44223;DHT22;29895;48.804;9.386;2022-09-09T16:05:12;21.70;97.10
44223;DHT22;29895;48.804;9.386;2022-09-09T16:07:37;21.50;97.30
44223;DHT22;29895;48.804;9.386;2022-09-09T16:10:04;21.30;98.00
44223;DHT22;29895;48.804;9.386;2022-09-09T16:12:30;21.20;98.10
44223;DHT22;29895;48.804;9.386;2022-09-09T16:14:57;21.10;98.30
44223;DHT22;29895;48.804;9.386;2022-09-09T16:17:26;21.10;99.00
44223;DHT22;29895;48.804;9.386;2022-09-09T16:19:52;21.00;99.00
44223;DHT22;29895;48.804;9.386;2022-09-09T16:22:20;21.00;98.90
44223;DHT22;29895;48.804;9.386;2022-09-09T16:24:47;20.90;99.20
44223;DHT22;29895;48.804;9.386;2022-09-09T16:27:13;20.90;98.80
44223;DHT22;29895;48.804;9.386;2022-09-09T16:29:40;20.90;98.40
44223;DHT22;29895;48.804;9.386;2022-09-09T16:32:05;20.90;98.30
44223;DHT22;29895;48.804;9.386;2022-09-09T16:34:31;20.90;97.80
44223;DHT22;29895;48.804;9.386;2022-09-09T16:36:58;21.00;97.60
44223;DHT22;29895;48.804;9.386;2022-09-09T16:39:24;20.90;97.80
44223;DHT22;29895;48.804;9.386;2022-09-09T16:41:51;20.90;97.80
44223;DHT22;29895;48.804;9.386;2022-09-09T16:44:17;20.90;97.80
44223;DHT22;29895;48.804;9.386;2022-09-09T16:46:45;20.90;98.10
44223;DHT22;29895;48.804;9.386;2022-09-09T16:49:13;20.90;98.10
